sensor_id;sensor_type;location;lat;lon;timestamp;temperature;humidity
67572;SHT31;54397;47.506;19.158;2022-12-18T00:00:57;0.91;73.34
67572;SHT31;54397;47.506;19.158;2022-12-18T00:04:24;0.81;73.48
67572;SHT31;54397;47.506;19.158;2022-12-18T00:07:46;0.76;74.35
67572;SHT31;54397;47.506;19.158;2022-12-18T00:11:12;0.73;73.99
67572;SHT31;54397;47.506;19.158;2022-12-18T00:14:36;0.72;73.47
67572;SHT31;54397;47.506;19.158;2022-12-18T00:18:02;0.77;73.56
67572;SHT31;54397;47.506;19.158;2022-12-18T00:21:27;0.76;73.54
67572;SHT31;54397;47.506;19.158;2022-12-18T00:24:49;0.74;73.93
67572;SHT31;54397;47.506;19.158;2022-12-18T00:28:10;0.87;73.25
67572;SHT31;54397;47.506;19.158;2022-12-18T00:31:32;0.80;73.85
67572;SHT31;54397;47.506;19.158;2022-12-18T00:34:54;0.56;73.07
67572;SHT31;54397;47.506;19.158;2022-12-18T00:38:16;0.16;74.57
67572;SHT31;54397;47.506;19.158;2022-12-18T00:41:40;0.22;75.20
67572;SHT31;54397;47.506;19.158;2022-12-18T00:45:20;0.36;75.48
67572;SHT31;54397;47.506;19.158;2022-12-18T00:48:41;0.48;74.45
67572;SHT31;54397;47.506;19.158;2022-12-18T00:52:06;0.53;73.92
67572;SHT31;54397;47.506;19.158;2022-12-18T00:55:27;0.60;74.06
67572;SHT31;54397;47.506;19.158;2022-12-18T00:58:49;0.69;73.55
67572;SHT31;54397;47.506;19.158;2022-12-18T01:02:13;0.53;74.16
67572;SHT31;54397;47.506;19.158;2022-12-18T01:05:39;0.36;74.95
67572;SHT31;54397;47.506;19.158;2022-12-18T01:09:04;0.36;74.51
67572;SHT31;54397;47.506;19.158;2022-12-18T01:12:25;0.32;75.50
67572;SHT31;54397;47.506;19.158;2022-12-18T01:15:51;0.24;74.81
67572;SHT31;54397;47.506;19.158;2022-12-18T01:19:15;0.30;74.69
67572;SHT31;54397;47.506;19.158;2022-12-18T01:22:39;0.49;73.84
67572;SHT31;54397;47.506;19.158;2022-12-18T01:26:12;0.15;73.14
67572;SHT31;54397;47.506;19.158;2022-12-18T01:29:34;0.50;73.56
67572;SHT31;54397;47.506;19.158;2022-12-18T01:32:56;0.45;74.45
67572;SHT31;54397;47.506;19.158;2022-12-18T01:36:23;0.59;74.42
67572;SHT31;54397;47.506;19.158;2022-12-18T01:39:45;0.39;74.15
67572;SHT31;54397;47.506;19.158;2022-12-18T01:43:08;0.53;74.26
67572;SHT31;54397;47.506;19.158;2022-12-18T01:46:30;0.42;74.12
67572;SHT31;54397;47.506;19.158;2022-12-18T01:49:53;0.24;74.36
67572;SHT31;54397;47.506;19.158;2022-12-18T01:53:19;0.32;75.00
67572;SHT31;54397;47.506;19.158;2022-12-18T01:56:42;0.25;74.14
67572;SHT31;54397;47.506;19.158;2022-12-18T02:00:10;0.50;74.13
67572;SHT31;54397;47.506;19.158;2022-12-18T02:03:32;0.54;73.23
67572;SHT31;54397;47.506;19.158;2022-12-18T02:07:10;0.59;73.38
67572;SHT31;54397;47.506;19.158;2022-12-18T02:17:35;0.64;73.47
67572;SHT31;54397;47.506;19.158;2022-12-18T02:24:46;0.54;74.50
67572;SHT31;54397;47.506;19.158;2022-12-18T02:28:15;0.53;73.94
67572;SHT31;54397;47.506;19.158;2022-12-18T02:31:45;0.54;74.53
67572;SHT31;54397;47.506;19.158;2022-12-18T02:35:19;0.53;74.02
67572;SHT31;54397;47.506;19.158;2022-12-18T02:38:45;0.57;74.15
67572;SHT31;54397;47.506;19.158;2022-12-18T02:42:08;0.50;74.93
67572;SHT31;54397;47.506;19.158;2022-12-18T02:45:32;0.43;74.77
67572;SHT31;54397;47.506;19.158;2022-12-18T02:48:59;0.43;74.91
67572;SHT31;54397;47.506;19.158;2022-12-18T02:56:09;0.43;74.74
67572;SHT31;54397;47.506;19.158;2022-12-18T03:03:36;0.39;75.12
67572;SHT31;54397;47.506;19.158;2022-12-18T03:07:03;0.33;75.09
67572;SHT31;54397;47.506;19.158;2022-12-18T03:10:29;0.24;75.25
67572;SHT31;54397;47.506;19.158;2022-12-18T03:13:54;0.36;74.56
67572;SHT31;54397;47.506;19.158;2022-12-18T03:17:19;0.30;74.38
67572;SHT31;54397;47.506;19.158;2022-12-18T03:20:43;0.28;74.49
67572;SHT31;54397;47.506;19.158;2022-12-18T03:24:07;0.29;74.99
67572;SHT31;54397;47.506;19.158;2022-12-18T03:27:31;0.45;74.06
67572;SHT31;54397;47.506;19.158;2022-12-18T03:30:57;0.28;75.04
67572;SHT31;54397;47.506;19.158;2022-12-18T03:34:29;0.12;75.58
67572;SHT31;54397;47.506;19.158;2022-12-18T03:37:52;0.09;75.81
67572;SHT31;54397;47.506;19.158;2022-12-18T03:44:57;0.18;75.35
67572;SHT31;54397;47.506;19.158;2022-12-18T03:48:39;-0.03;76.78
67572;SHT31;54397;47.506;19.158;2022-12-18T03:52:13;-0.15;76.35
67572;SHT31;54397;47.506;19.158;2022-12-18T03:55:38;-0.15;76.36
67572;SHT31;54397;47.506;19.158;2022-12-18T03:59:01;-0.17;76.78
67572;SHT31;54397;47.506;19.158;2022-12-18T04:02:24;-0.30;77.14
67572;SHT31;54397;47.506;19.158;2022-12-18T04:05:48;-0.44;77.58
67572;SHT31;54397;47.506;19.158;2022-12-18T04:09:12;-0.50;78.03
67572;SHT31;54397;47.506;19.158;2022-12-18T04:12:33;-0.50;78.18
67572;SHT31;54397;47.506;19.158;2022-12-18T04:15:55;-0.49;77.47
67572;SHT31;54397;47.506;19.158;2022-12-18T04:19:16;-0.54;78.17
67572;SHT31;54397;47.506;19.158;2022-12-18T04:22:43;-0.60;78.31
67572;SHT31;54397;47.506;19.158;2022-12-18T04:26:07;-0.60;78.28
67572;SHT31;54397;47.506;19.158;2022-12-18T04:29:29;-0.56;78.04
67572;SHT31;54397;47.506;19.158;2022-12-18T04:32:50;-0.58;77.74
67572;SHT31;54397;47.506;19.158;2022-12-18T04:36:15;-0.51;77.46
67572;SHT31;54397;47.506;19.158;2022-12-18T04:39:39;-0.58;78.09
67572;SHT31;54397;47.506;19.158;2022-12-18T04:43:01;-0.57;78.19
67572;SHT31;54397;47.506;19.158;2022-12-18T04:46:22;-0.58;77.46
67572;SHT31;54397;47.506;19.158;2022-12-18T04:49:44;-0.60;78.38
67572;SHT31;54397;47.506;19.158;2022-12-18T04:53:06;-0.64;78.14
67572;SHT31;54397;47.506;19.158;2022-12-18T04:56:31;-0.61;77.54
67572;SHT31;54397;47.506;19.158;2022-12-18T04:59:53;-0.67;77.20
67572;SHT31;54397;47.506;19.158;2022-12-18T05:03:17;-0.61;77.79
67572;SHT31;54397;47.506;19.158;2022-12-18T05:06:38;-0.62;77.10
67572;SHT31;54397;47.506;19.158;2022-12-18T05:10:03;-0.68;77.37
67572;SHT31;54397;47.506;19.158;2022-12-18T05:13:28;-0.64;77.71
67572;SHT31;54397;47.506;19.158;2022-12-18T05:16:52;-0.68;77.24
67572;SHT31;54397;47.506;19.158;2022-12-18T05:20:21;-0.77;78.00
67572;SHT31;54397;47.506;19.158;2022-12-18T05:23:43;-0.77;78.00
67572;SHT31;54397;47.506;19.158;2022-12-18T05:27:04;-0.78;77.10
67572;SHT31;54397;47.506;19.158;2022-12-18T05:30:26;-0.88;78.38
67572;SHT31;54397;47.506;19.158;2022-12-18T05:33:48;-0.80;77.24
67572;SHT31;54397;47.506;19.158;2022-12-18T05:37:10;-0.85;77.76
67572;SHT31;54397;47.506;19.158;2022-12-18T05:40:32;-0.93;78.08
67572;SHT31;54397;47.506;19.158;2022-12-18T05:43:53;-1.01;78.69
67572;SHT31;54397;47.506;19.158;2022-12-18T05:47:15;-1.17;78.72
67572;SHT31;54397;47.506;19.158;2022-12-18T05:50:37;-1.22;79.49
67572;SHT31;54397;47.506;19.158;2022-12-18T05:54:01;-1.03;78.79
67572;SHT31;54397;47.506;19.158;2022-12-18T05:57:23;-0.91;77.19
67572;SHT31;54397;47.506;19.158;2022-12-18T06:00:46;-0.67;76.00
67572;SHT31;54397;47.506;19.158;2022-12-18T06:04:07;-0.88;77.07
67572;SHT31;54397;47.506;19.158;2022-12-18T06:07:29;-1.08;77.91
67572;SHT31;54397;47.506;19.158;2022-12-18T06:10:51;-1.22;78.65
67572;SHT31;54397;47.506;19.158;2022-12-18T06:14:16;-1.19;78.90
67572;SHT31;54397;47.506;19.158;2022-12-18T06:17:38;-1.19;78.55
67572;SHT31;54397;47.506;19.158;2022-12-18T06:21:02;-1.13;78.27
67572;SHT31;54397;47.506;19.158;2022-12-18T06:24:24;-1.26;79.35
67572;SHT31;54397;47.506;19.158;2022-12-18T06:27:47;-1.22;79.45
67572;SHT31;54397;47.506;19.158;2022-12-18T06:31:09;-1.26;79.92
67572;SHT31;54397;47.506;19.158;2022-12-18T06:34:32;-1.35;79.68
67572;SHT31;54397;47.506;19.158;2022-12-18T06:37:53;-1.35;80.39
67572;SHT31;54397;47.506;19.158;2022-12-18T06:41:20;-1.43;79.98
67572;SHT31;54397;47.506;19.158;2022-12-18T06:44:41;-1.44;80.36
67572;SHT31;54397;47.506;19.158;2022-12-18T06:48:03;-1.46;79.98
67572;SHT31;54397;47.506;19.158;2022-12-18T06:51:27;-1.47;79.88
67572;SHT31;54397;47.506;19.158;2022-12-18T06:54:49;-1.46;79.14
67572;SHT31;54397;47.506;19.158;2022-12-18T06:58:13;-1.29;78.17
67572;SHT31;54397;47.506;19.158;2022-12-18T07:01:35;-1.17;77.53
67572;SHT31;54397;47.506;19.158;2022-12-18T07:04:57;-1.08;77.25
67572;SHT31;54397;47.506;19.158;2022-12-18T07:08:18;-1.19;78.28
67572;SHT31;54397;47.506;19.158;2022-12-18T07:11:42;-1.03;78.52
67572;SHT31;54397;47.506;19.158;2022-12-18T07:15:04;-1.03;78.78
67572;SHT31;54397;47.506;19.158;2022-12-18T07:18:26;-0.89;78.74
67572;SHT31;54397;47.506;19.158;2022-12-18T07:21:50;-0.84;78.08
67572;SHT31;54397;47.506;19.158;2022-12-18T07:25:12;-0.92;78.76
67572;SHT31;54397;47.506;19.158;2022-12-18T07:28:35;-0.96;78.33
67572;SHT31;54397;47.506;19.158;2022-12-18T07:31:56;-0.93;78.10
67572;SHT31;54397;47.506;19.158;2022-12-18T07:35:18;-0.77;78.32
67572;SHT31;54397;47.506;19.158;2022-12-18T07:38:49;-0.71;79.17
67572;SHT31;54397;47.506;19.158;2022-12-18T07:42:11;-0.71;78.80
67572;SHT31;54397;47.506;19.158;2022-12-18T07:45:51;-0.65;79.37
67572;SHT31;54397;47.506;19.158;2022-12-18T07:49:13;-0.56;78.86
67572;SHT31;54397;47.506;19.158;2022-12-18T07:52:35;-0.15;78.01
67572;SHT31;54397;47.506;19.158;2022-12-18T07:55:57;0.66;75.40
67572;SHT31;54397;47.506;19.158;2022-12-18T07:59:39;1.04;73.89
67572;SHT31;54397;47.506;19.158;2022-12-18T08:03:01;1.24;72.97
67572;SHT31;54397;47.506;19.158;2022-12-18T08:06:23;1.42;71.98
67572;SHT31;54397;47.506;19.158;2022-12-18T08:09:45;1.52;70.69
67572;SHT31;54397;47.506;19.158;2022-12-18T08:13:09;1.98;69.86
67572;SHT31;54397;47.506;19.158;2022-12-18T08:16:32;2.42;67.77
67572;SHT31;54397;47.506;19.158;2022-12-18T08:19:57;2.67;67.36
67572;SHT31;54397;47.506;19.158;2022-12-18T08:23:19;2.93;65.84
67572;SHT31;54397;47.506;19.158;2022-12-18T08:26:40;3.72;63.93
67572;SHT31;54397;47.506;19.158;2022-12-18T08:30:12;4.17;61.84
67572;SHT31;54397;47.506;19.158;2022-12-18T08:33:38;3.86;62.71
67572;SHT31;54397;47.506;19.158;2022-12-18T08:37:04;4.21;62.10
67572;SHT31;54397;47.506;19.158;2022-12-18T08:40:25;4.68;60.20
67572;SHT31;54397;47.506;19.158;2022-12-18T08:43:47;5.79;56.93
67572;SHT31;54397;47.506;19.158;2022-12-18T08:47:27;6.11;54.44
67572;SHT31;54397;47.506;19.158;2022-12-18T08:50:59;6.47;54.39
67572;SHT31;54397;47.506;19.158;2022-12-18T08:54:20;6.77;53.41
67572;SHT31;54397;47.506;19.158;2022-12-18T08:57:48;7.24;51.36
67572;SHT31;54397;47.506;19.158;2022-12-18T09:01:13;7.43;51.65
67572;SHT31;54397;47.506;19.158;2022-12-18T09:04:37;7.06;51.68
67572;SHT31;54397;47.506;19.158;2022-12-18T09:07:59;5.92;53.78
67572;SHT31;54397;47.506;19.158;2022-12-18T09:11:23;5.75;53.43
67572;SHT31;54397;47.506;19.158;2022-12-18T09:14:45;5.88;53.67
67572;SHT31;54397;47.506;19.158;2022-12-18T09:18:07;6.75;53.46
67572;SHT31;54397;47.506;19.158;2022-12-18T09:21:33;6.96;51.63
67572;SHT31;54397;47.506;19.158;2022-12-18T09:25:00;6.85;52.34
67572;SHT31;54397;47.506;19.158;2022-12-18T09:28:21;7.22;50.66
67572;SHT31;54397;47.506;19.158;2022-12-18T09:31:43;6.05;52.34
67572;SHT31;54397;47.506;19.158;2022-12-18T09:35:05;6.47;52.89
67572;SHT31;54397;47.506;19.158;2022-12-18T09:38:28;4.22;56.98
67572;SHT31;54397;47.506;19.158;2022-12-18T09:41:52;4.89;56.23
67572;SHT31;54397;47.506;19.158;2022-12-18T09:45:18;4.71;56.64
67572;SHT31;54397;47.506;19.158;2022-12-18T09:48:42;5.26;54.91
67572;SHT31;54397;47.506;19.158;2022-12-18T09:52:25;5.88;54.40
67572;SHT31;54397;47.506;19.158;2022-12-18T09:55:52;6.11;52.98
67572;SHT31;54397;47.506;19.158;2022-12-18T09:59:26;6.77;50.18
67572;SHT31;54397;47.506;19.158;2022-12-18T10:02:51;6.89;50.38
67572;SHT31;54397;47.506;19.158;2022-12-18T10:07:01;8.03;48.15
67572;SHT31;54397;47.506;19.158;2022-12-18T10:10:52;9.14;44.24
67572;SHT31;54397;47.506;19.158;2022-12-18T10:17:51;10.22;41.36
67572;SHT31;54397;47.506;19.158;2022-12-18T10:21:20;10.41;40.96
67572;SHT31;54397;47.506;19.158;2022-12-18T10:28:18;11.83;37.55
67572;SHT31;54397;47.506;19.158;2022-12-18T10:31:40;12.79;35.67
67572;SHT31;54397;47.506;19.158;2022-12-18T10:35:02;11.10;36.66
67572;SHT31;54397;47.506;19.158;2022-12-18T10:38:29;10.88;37.53
67572;SHT31;54397;47.506;19.158;2022-12-18T10:41:51;11.94;36.39
67572;SHT31;54397;47.506;19.158;2022-12-18T10:45:16;13.44;33.95
67572;SHT31;54397;47.506;19.158;2022-12-18T10:48:40;12.80;33.49
67572;SHT31;54397;47.506;19.158;2022-12-18T10:55:38;11.84;35.47
67572;SHT31;54397;47.506;19.158;2022-12-18T10:59:13;11.45;35.62
67572;SHT31;54397;47.506;19.158;2022-12-18T11:02:38;9.84;40.96
67572;SHT31;54397;47.506;19.158;2022-12-18T11:12:55;13.93;33.95
67572;SHT31;54397;47.506;19.158;2022-12-18T11:16:20;14.67;30.60
67572;SHT31;54397;47.506;19.158;2022-12-18T11:19:42;14.03;32.00
67572;SHT31;54397;47.506;19.158;2022-12-18T11:23:13;14.65;30.90
67572;SHT31;54397;47.506;19.158;2022-12-18T11:26:35;15.57;30.89
67572;SHT31;54397;47.506;19.158;2022-12-18T11:30:21;13.55;33.07
67572;SHT31;54397;47.506;19.158;2022-12-18T11:33:47;14.84;30.64
67572;SHT31;54397;47.506;19.158;2022-12-18T11:37:32;15.22;30.02
67572;SHT31;54397;47.506;19.158;2022-12-18T11:41:10;14.50;30.32
67572;SHT31;54397;47.506;19.158;2022-12-18T11:44:52;15.30;31.41
67572;SHT31;54397;47.506;19.158;2022-12-18T11:48:25;15.60;32.02
67572;SHT31;54397;47.506;19.158;2022-12-18T11:52:10;16.29;29.50
67572;SHT31;54397;47.506;19.158;2022-12-18T12:14:37;15.47;30.47
67572;SHT31;54397;47.506;19.158;2022-12-18T12:21:50;15.71;29.80
67572;SHT31;54397;47.506;19.158;2022-12-18T12:25:37;15.44;30.17
67572;SHT31;54397;47.506;19.158;2022-12-18T12:29:42;14.87;31.86
67572;SHT31;54397;47.506;19.158;2022-12-18T12:40:01;14.10;33.43
67572;SHT31;54397;47.506;19.158;2022-12-18T12:43:44;14.98;32.79
67572;SHT31;54397;47.506;19.158;2022-12-18T12:47:16;15.16;31.89
67572;SHT31;54397;47.506;19.158;2022-12-18T12:50:40;14.82;31.90
67572;SHT31;54397;47.506;19.158;2022-12-18T12:54:08;15.63;32.31
67572;SHT31;54397;47.506;19.158;2022-12-18T12:57:39;16.01;31.33
67572;SHT31;54397;47.506;19.158;2022-12-18T13:01:12;16.16;29.55
67572;SHT31;54397;47.506;19.158;2022-12-18T13:08:27;15.19;30.20
67572;SHT31;54397;47.506;19.158;2022-12-18T13:12:01;14.40;30.92
67572;SHT31;54397;47.506;19.158;2022-12-18T13:15:49;13.53;33.27
67572;SHT31;54397;47.506;19.158;2022-12-18T13:19:26;12.45;36.14
67572;SHT31;54397;47.506;19.158;2022-12-18T13:22:50;10.69;37.90
67572;SHT31;54397;47.506;19.158;2022-12-18T13:29:49;9.36;41.42
67572;SHT31;54397;47.506;19.158;2022-12-18T13:36:37;8.33;43.84
67572;SHT31;54397;47.506;19.158;2022-12-18T13:39:58;8.10;45.48
67572;SHT31;54397;47.506;19.158;2022-12-18T13:46:50;7.72;47.15
67572;SHT31;54397;47.506;19.158;2022-12-18T13:50:32;7.71;47.04
67572;SHT31;54397;47.506;19.158;2022-12-18T13:53:59;7.33;47.49
67572;SHT31;54397;47.506;19.158;2022-12-18T13:57:29;7.07;48.24
67572;SHT31;54397;47.506;19.158;2022-12-18T14:00:52;6.91;49.53
67572;SHT31;54397;47.506;19.158;2022-12-18T14:04:28;6.75;50.10
67572;SHT31;54397;47.506;19.158;2022-12-18T14:07:53;6.42;50.59
67572;SHT31;54397;47.506;19.158;2022-12-18T14:11:22;6.42;50.59
67572;SHT31;54397;47.506;19.158;2022-12-18T14:14:48;6.17;51.02
67572;SHT31;54397;47.506;19.158;2022-12-18T14:18:25;6.14;51.69
67572;SHT31;54397;47.506;19.158;2022-12-18T14:21:49;6.00;50.70
67572;SHT31;54397;47.506;19.158;2022-12-18T14:28:43;6.98;67.49
67572;SHT31;54397;47.506;19.158;2022-12-18T14:32:19;7.55;63.55
67572;SHT31;54397;47.506;19.158;2022-12-18T14:35:59;7.46;58.42
67572;SHT31;54397;47.506;19.158;2022-12-18T14:39:24;7.30;59.26
67572;SHT31;54397;47.506;19.158;2022-12-18T14:42:47;6.89;50.46
67572;SHT31;54397;47.506;19.158;2022-12-18T14:49:52;6.02;52.98
67572;SHT31;54397;47.506;19.158;2022-12-18T14:53:26;5.72;53.52
67572;SHT31;54397;47.506;19.158;2022-12-18T14:57:18;5.54;54.10
67572;SHT31;54397;47.506;19.158;2022-12-18T15:00:42;5.37;55.17
67572;SHT31;54397;47.506;19.158;2022-12-18T15:04:05;5.22;55.56
67572;SHT31;54397;47.506;19.158;2022-12-18T15:07:51;5.10;55.91
67572;SHT31;54397;47.506;19.158;2022-12-18T15:14:55;4.59;57.94
67572;SHT31;54397;47.506;19.158;2022-12-18T15:18:21;4.54;58.88
67572;SHT31;54397;47.506;19.158;2022-12-18T15:21:46;4.16;59.95
67572;SHT31;54397;47.506;19.158;2022-12-18T15:32:19;5.82;72.12
67572;SHT31;54397;47.506;19.158;2022-12-18T15:35:43;5.44;72.73
67572;SHT31;54397;47.506;19.158;2022-12-18T15:39:12;5.34;75.09
67572;SHT31;54397;47.506;19.158;2022-12-18T15:42:34;5.17;72.09
67572;SHT31;54397;47.506;19.158;2022-12-18T15:46:15;4.97;68.37
67572;SHT31;54397;47.506;19.158;2022-12-18T15:49:37;4.75;68.13
67572;SHT31;54397;47.506;19.158;2022-12-18T15:52:59;4.34;61.02
67572;SHT31;54397;47.506;19.158;2022-12-18T15:56:21;3.99;61.86
67572;SHT31;54397;47.506;19.158;2022-12-18T16:00:01;3.70;62.60
67572;SHT31;54397;47.506;19.158;2022-12-18T16:03:22;3.51;62.70
67572;SHT31;54397;47.506;19.158;2022-12-18T16:06:44;3.65;62.06
67572;SHT31;54397;47.506;19.158;2022-12-18T16:10:26;3.30;63.42
67572;SHT31;54397;47.506;19.158;2022-12-18T16:13:51;3.13;64.21
67572;SHT31;54397;47.506;19.158;2022-12-18T16:17:16;2.79;65.63
67572;SHT31;54397;47.506;19.158;2022-12-18T16:20:38;2.80;65.69
67572;SHT31;54397;47.506;19.158;2022-12-18T16:23:59;2.72;65.54
67572;SHT31;54397;47.506;19.158;2022-12-18T16:27:27;2.84;77.55
67572;SHT31;54397;47.506;19.158;2022-12-18T16:30:48;3.04;76.13
67572;SHT31;54397;47.506;19.158;2022-12-18T16:37:40;3.38;74.15
67572;SHT31;54397;47.506;19.158;2022-12-18T16:41:04;3.51;73.99
67572;SHT31;54397;47.506;19.158;2022-12-18T16:44:52;3.52;73.27
67572;SHT31;54397;47.506;19.158;2022-12-18T16:48:16;3.46;73.67
67572;SHT31;54397;47.506;19.158;2022-12-18T16:51:38;3.32;73.43
67572;SHT31;54397;47.506;19.158;2022-12-18T16:55:00;3.38;74.88
67572;SHT31;54397;47.506;19.158;2022-12-18T16:58:21;3.14;65.79
67572;SHT31;54397;47.506;19.158;2022-12-18T17:01:43;2.87;65.38
67572;SHT31;54397;47.506;19.158;2022-12-18T17:05:07;2.73;65.60
67572;SHT31;54397;47.506;19.158;2022-12-18T17:08:29;2.76;64.88
67572;SHT31;54397;47.506;19.158;2022-12-18T17:11:54;2.39;66.06
67572;SHT31;54397;47.506;19.158;2022-12-18T17:15:18;1.88;68.32
67572;SHT31;54397;47.506;19.158;2022-12-18T17:18:43;1.71;68.91
67572;SHT31;54397;47.506;19.158;2022-12-18T17:22:05;1.62;69.25
67572;SHT31;54397;47.506;19.158;2022-12-18T17:25:30;1.86;68.37
67572;SHT31;54397;47.506;19.158;2022-12-18T17:28:55;1.87;79.60
67572;SHT31;54397;47.506;19.158;2022-12-18T17:32:20;2.13;78.98
67572;SHT31;54397;47.506;19.158;2022-12-18T17:35:41;2.25;76.31
67572;SHT31;54397;47.506;19.158;2022-12-18T17:39:05;2.50;77.16
67572;SHT31;54397;47.506;19.158;2022-12-18T17:42:27;2.59;76.01
67572;SHT31;54397;47.506;19.158;2022-12-18T17:45:48;2.57;77.65
67572;SHT31;54397;47.506;19.158;2022-12-18T17:49:15;2.49;76.07
67572;SHT31;54397;47.506;19.158;2022-12-18T17:52:39;2.53;75.69
67572;SHT31;54397;47.506;19.158;2022-12-18T17:56:01;2.24;67.17
67572;SHT31;54397;47.506;19.158;2022-12-18T17:59:25;1.98;67.02
67572;SHT31;54397;47.506;19.158;2022-12-18T18:02:47;1.79;67.52
67572;SHT31;54397;47.506;19.158;2022-12-18T18:06:09;1.70;68.09
67572;SHT31;54397;47.506;19.158;2022-12-18T18:09:32;1.27;68.75
67572;SHT31;54397;47.506;19.158;2022-12-18T18:12:56;1.11;70.07
67572;SHT31;54397;47.506;19.158;2022-12-18T18:16:43;1.24;69.43
67572;SHT31;54397;47.506;19.158;2022-12-18T18:20:05;1.00;69.66
67572;SHT31;54397;47.506;19.158;2022-12-18T18:23:30;1.09;69.92
67572;SHT31;54397;47.506;19.158;2022-12-18T18:26:54;1.00;69.66
67572;SHT31;54397;47.506;19.158;2022-12-18T18:30:16;1.07;69.85
67572;SHT31;54397;47.506;19.158;2022-12-18T18:33:40;0.83;70.56
67572;SHT31;54397;47.506;19.158;2022-12-18T18:37:02;0.64;71.45
67572;SHT31;54397;47.506;19.158;2022-12-18T18:40:24;0.83;84.80
67572;SHT31;54397;47.506;19.158;2022-12-18T18:43:53;1.14;82.25
67572;SHT31;54397;47.506;19.158;2022-12-18T18:47:17;1.36;80.19
67572;SHT31;54397;47.506;19.158;2022-12-18T18:50:38;1.52;78.94
67572;SHT31;54397;47.506;19.158;2022-12-18T18:54:02;1.64;79.54
67572;SHT31;54397;47.506;19.158;2022-12-18T18:57:24;1.70;77.43
67572;SHT31;54397;47.506;19.158;2022-12-18T19:01:10;1.49;69.61
67572;SHT31;54397;47.506;19.158;2022-12-18T19:04:37;1.12;70.08
67572;SHT31;54397;47.506;19.158;2022-12-18T19:08:09;0.80;71.22
67572;SHT31;54397;47.506;19.158;2022-12-18T19:11:31;0.77;70.83
67572;SHT31;54397;47.506;19.158;2022-12-18T19:15:11;0.43;71.87
67572;SHT31;54397;47.506;19.158;2022-12-18T19:18:34;0.39;79.04
67572;SHT31;54397;47.506;19.158;2022-12-18T19:21:58;0.76;82.47
67572;SHT31;54397;47.506;19.158;2022-12-18T19:25:25;1.08;81.05
67572;SHT31;54397;47.506;19.158;2022-12-18T19:29:07;1.22;77.12
67572;SHT31;54397;47.506;19.158;2022-12-18T19:32:29;1.38;78.71
67572;SHT31;54397;47.506;19.158;2022-12-18T19:35:51;1.39;78.69
67572;SHT31;54397;47.506;19.158;2022-12-18T19:39:15;1.31;78.23
67572;SHT31;54397;47.506;19.158;2022-12-18T19:42:40;1.29;77.55
67572;SHT31;54397;47.506;19.158;2022-12-18T19:46:05;1.28;78.16
67572;SHT31;54397;47.506;19.158;2022-12-18T19:49:27;1.28;78.01
67572;SHT31;54397;47.506;19.158;2022-12-18T19:52:49;1.20;78.19
67572;SHT31;54397;47.506;19.158;2022-12-18T19:56:14;1.12;77.93
67572;SHT31;54397;47.506;19.158;2022-12-18T19:59:38;1.24;80.28
67572;SHT31;54397;47.506;19.158;2022-12-18T20:03:03;1.05;77.98
67572;SHT31;54397;47.506;19.158;2022-12-18T20:06:49;0.70;70.08
67572;SHT31;54397;47.506;19.158;2022-12-18T20:10:14;0.63;69.59
67572;SHT31;54397;47.506;19.158;2022-12-18T20:13:38;0.66;68.73
67572;SHT31;54397;47.506;19.158;2022-12-18T20:17:00;-0.02;70.93
67572;SHT31;54397;47.506;19.158;2022-12-18T20:20:24;-0.10;71.34
67572;SHT31;54397;47.506;19.158;2022-12-18T20:23:49;-0.09;70.53
67572;SHT31;54397;47.506;19.158;2022-12-18T20:27:10;-0.41;73.13
67572;SHT31;54397;47.506;19.158;2022-12-18T20:30:38;-0.23;71.84
67572;SHT31;54397;47.506;19.158;2022-12-18T20:34:03;0.02;83.92
67572;SHT31;54397;47.506;19.158;2022-12-18T20:37:27;0.25;83.83
67572;SHT31;54397;47.506;19.158;2022-12-18T20:40:52;0.56;85.71
67572;SHT31;54397;47.506;19.158;2022-12-18T20:44:15;0.94;86.26
67572;SHT31;54397;47.506;19.158;2022-12-18T20:47:44;0.98;78.50
67572;SHT31;54397;47.506;19.158;2022-12-18T20:51:10;1.00;78.41
67572;SHT31;54397;47.506;19.158;2022-12-18T20:54:32;0.73;69.65
67572;SHT31;54397;47.506;19.158;2022-12-18T20:57:53;0.54;69.73
67572;SHT31;54397;47.506;19.158;2022-12-18T21:01:21;0.43;69.07
67572;SHT31;54397;47.506;19.158;2022-12-18T21:04:43;-0.03;70.71
67572;SHT31;54397;47.506;19.158;2022-12-18T21:08:05;-0.58;73.42
67572;SHT31;54397;47.506;19.158;2022-12-18T21:11:28;-0.51;73.20
67572;SHT31;54397;47.506;19.158;2022-12-18T21:15:12;-0.20;71.26
67572;SHT31;54397;47.506;19.158;2022-12-18T21:18:36;-0.13;70.86
67572;SHT31;54397;47.506;19.158;2022-12-18T21:21:57;-0.16;70.75
67572;SHT31;54397;47.506;19.158;2022-12-18T21:25:19;-0.32;71.38
67572;SHT31;54397;47.506;19.158;2022-12-18T21:28:40;-0.50;71.98
67572;SHT31;54397;47.506;19.158;2022-12-18T21:32:05;-0.78;73.14
67572;SHT31;54397;47.506;19.158;2022-12-18T21:35:29;-0.98;74.18
67572;SHT31;54397;47.506;19.158;2022-12-18T21:38:53;-1.01;74.29
67572;SHT31;54397;47.506;19.158;2022-12-18T21:42:15;-1.15;74.95
67572;SHT31;54397;47.506;19.158;2022-12-18T21:45:55;-0.78;73.10
67572;SHT31;54397;47.506;19.158;2022-12-18T21:49:19;-0.80;72.52
67572;SHT31;54397;47.506;19.158;2022-12-18T21:52:44;-1.01;74.07
67572;SHT31;54397;47.506;19.158;2022-12-18T21:56:06;-0.84;74.25
67572;SHT31;54397;47.506;19.158;2022-12-18T21:59:38;-0.74;72.85
67572;SHT31;54397;47.506;19.158;2022-12-18T22:03:00;-0.88;73.90
67572;SHT31;54397;47.506;19.158;2022-12-18T22:06:39;-0.84;73.88
67572;SHT31;54397;47.506;19.158;2022-12-18T22:10:02;-0.91;74.84
67572;SHT31;54397;47.506;19.158;2022-12-18T22:13:23;-0.67;73.95
67572;SHT31;54397;47.506;19.158;2022-12-18T22:16:48;-0.58;74.40
67572;SHT31;54397;47.506;19.158;2022-12-18T22:20:13;-0.49;74.14
67572;SHT31;54397;47.506;19.158;2022-12-18T22:23:34;-0.36;74.56
67572;SHT31;54397;47.506;19.158;2022-12-18T22:26:56;-0.32;74.94
67572;SHT31;54397;47.506;19.158;2022-12-18T22:30:22;-0.20;76.04
67572;SHT31;54397;47.506;19.158;2022-12-18T22:33:44;-0.20;76.86
67572;SHT31;54397;47.506;19.158;2022-12-18T22:37:09;-0.06;76.23
67572;SHT31;54397;47.506;19.158;2022-12-18T22:40:30;-0.34;76.89
67572;SHT31;54397;47.506;19.158;2022-12-18T22:43:54;-0.24;78.52
67572;SHT31;54397;47.506;19.158;2022-12-18T22:47:15;-0.03;78.65
67572;SHT31;54397;47.506;19.158;2022-12-18T22:50:37;-0.03;78.69
67572;SHT31;54397;47.506;19.158;2022-12-18T22:54:01;-0.24;79.78
67572;SHT31;54397;47.506;19.158;2022-12-18T22:57:25;-0.30;80.14
67572;SHT31;54397;47.506;19.158;2022-12-18T23:00:47;-0.22;80.03
67572;SHT31;54397;47.506;19.158;2022-12-18T23:04:09;-0.07;79.67
67572;SHT31;54397;47.506;19.158;2022-12-18T23:07:31;-0.06;79.83
67572;SHT31;54397;47.506;19.158;2022-12-18T23:10:52;-0.19;80.59
67572;SHT31;54397;47.506;19.158;2022-12-18T23:14:14;-0.07;80.23
67572;SHT31;54397;47.506;19.158;2022-12-18T23:17:38;-0.09;80.39